Time;durP1;ratioP1;P1;durP2;ratioP2;P2;SDS_P1;SDS_P2;PMS_P1;PMS_P2;Temp;Humidity;BMP_temperature;BMP_pressure;BME280_temperature;BME280_humidity;BME280_pressure;Samples;Min_cycle;Max_cycle;Signal;HPM_P1;HPM_P2
2023/08/04 00:02:29;;;;;;;;;;;;;;;15.14;100.00;100902.53;10462004;28;19925;-67
2023/08/04 00:07:32;;;;;;;;;;;;;;;15.17;100.00;100901.47;10462141;28;20015;-67
2023/08/04 00:12:34;;;;;;;;;;;;;;;15.11;100.00;100913.31;10444037;28;19925;-67
2023/08/04 00:17:38;;;;;;;;;;;;;;;15.18;100.00;100919.81;10461563;28;20016;-67
2023/08/04 00:22:41;;;;;;;;;;;;;;;15.19;100.00;100921.50;10461365;28;19929;-67
2023/08/04 00:27:43;;;;;;;;;;;;;;;15.10;100.00;100921.38;10461101;28;19931;-67
2023/08/04 00:32:47;;;;;;;;;;;;;;;15.24;100.00;100926.44;10461009;28;19932;-67
2023/08/04 00:37:49;;;;;;;;;;;;;;;14.79;100.00;100929.75;10460043;28;20380;-67
2023/08/04 00:42:52;;;;;;;;;;;;;;;14.89;100.00;100937.78;10460514;28;19931;-67
2023/08/04 00:47:54;;;;;;;;;;;;;;;14.86;100.00;100940.66;10442649;28;19924;-67
2023/08/04 00:52:56;;;;;;;;;;;;;;;15.15;100.00;100940.31;10442589;28;19936;-67
2023/08/04 00:57:58;;;;;;;;;;;;;;;15.28;100.00;100943.72;10442131;28;20380;-67
2023/08/04 01:03:01;;;;;;;;;;;;;;;14.96;100.00;100946.94;10459672;28;19929;-67
2023/08/04 01:08:33;;;;;;;;;;;;;;;15.21;100.00;100953.03;10459443;28;20388;-67
2023/08/04 01:13:35;;;;;;;;;;;;;;;15.12;100.00;100953.72;10438294;28;19979;-67
2023/08/04 01:18:37;;;;;;;;;;;;;;;14.84;100.00;100958.38;10458955;28;19925;-67
2023/08/04 01:23:39;;;;;;;;;;;;;;;14.80;100.00;100964.84;10424805;28;19925;-67
2023/08/04 01:28:42;;;;;;;;;;;;;;;14.95;100.00;100963.72;10458545;28;20004;-67
2023/08/04 01:33:44;;;;;;;;;;;;;;;14.57;100.00;100963.81;10440862;28;19925;-67
2023/08/04 01:38:46;;;;;;;;;;;;;;;14.66;100.00;100977.22;10440865;28;19925;-67
2023/08/04 01:43:48;;;;;;;;;;;;;;;14.79;100.00;100966.63;10440648;28;19939;-66
2023/08/04 01:48:51;;;;;;;;;;;;;;;14.67;100.00;100986.78;10457129;28;20381;-67
2023/08/04 01:53:53;;;;;;;;;;;;;;;14.72;100.00;100989.09;10457832;28;19931;-67
2023/08/04 01:58:55;;;;;;;;;;;;;;;14.74;100.00;100978.44;10457529;28;20380;-66
2023/08/04 02:03:57;;;;;;;;;;;;;;;14.77;100.00;100983.50;10457670;28;20003;-67
2023/08/04 02:09:00;;;;;;;;;;;;;;;14.73;100.00;100982.06;10457281;28;20291;-67
2023/08/04 02:14:02;;;;;;;;;;;;;;;14.74;100.00;100989.00;10457142;28;19931;-66
2023/08/04 02:19:05;;;;;;;;;;;;;;;14.74;100.00;100987.19;10457161;28;19931;-66
2023/08/04 02:24:07;;;;;;;;;;;;;;;14.84;100.00;100995.28;10456950;28;20011;-67
2023/08/04 02:29:13;;;;;;;;;;;;;;;14.77;100.00;100997.50;10456557;28;20295;-67
2023/08/04 02:34:15;;;;;;;;;;;;;;;14.53;100.00;101017.69;10439048;28;20040;-67
2023/08/04 02:39:17;;;;;;;;;;;;;;;14.54;100.00;101016.72;10456533;28;20008;-67
2023/08/04 02:44:20;;;;;;;;;;;;;;;14.76;100.00;101009.03;10456477;28;19925;-67
2023/08/04 02:49:22;;;;;;;;;;;;;;;14.56;100.00;101020.94;10456413;28;19931;-67
2023/08/04 02:54:24;;;;;;;;;;;;;;;14.88;100.00;101019.63;10456314;28;19959;-67
2023/08/04 02:59:27;;;;;;;;;;;;;;;14.80;100.00;101012.28;10456093;28;19931;-67
2023/08/04 03:04:29;;;;;;;;;;;;;;;14.78;100.00;101022.09;10464431;28;19925;-67
2023/08/04 03:09:31;;;;;;;;;;;;;;;14.84;100.00;101021.63;10464179;28;19929;-67
2023/08/04 03:14:33;;;;;;;;;;;;;;;14.83;100.00;101030.50;10446242;28;20289;-67
2023/08/04 03:19:36;;;;;;;;;;;;;;;14.81;100.00;101027.13;10463696;28;20364;-67
2023/08/04 03:24:38;;;;;;;;;;;;;;;14.88;100.00;101031.03;10463684;28;19924;-67
2023/08/04 03:29:40;;;;;;;;;;;;;;;14.87;100.00;101031.97;10463399;28;19925;-66
2023/08/04 03:34:42;;;;;;;;;;;;;;;14.93;100.00;101042.06;10463239;28;19933;-67
2023/08/04 03:39:45;;;;;;;;;;;;;;;14.80;100.00;101033.38;10462918;28;20389;-67
2023/08/04 03:44:47;;;;;;;;;;;;;;;14.97;100.00;101040.06;10462779;28;19959;-67
2023/08/04 03:49:49;;;;;;;;;;;;;;;15.00;100.00;101034.56;10462626;28;19931;-67
2023/08/04 03:54:51;;;;;;;;;;;;;;;14.83;100.00;101041.06;10444961;28;19935;-67
2023/08/04 03:59:54;;;;;;;;;;;;;;;14.77;100.00;101038.84;10462276;28;19925;-66
2023/08/04 04:04:56;;;;;;;;;;;;;;;14.82;100.00;101052.53;10444627;28;19935;-67
2023/08/04 04:09:58;;;;;;;;;;;;;;;14.89;100.00;101032.69;10461782;28;20375;-66
2023/08/04 04:15:03;;;;;;;;;;;;;;;14.91;100.00;101057.16;10460823;28;20276;-67
2023/08/04 04:20:06;;;;;;;;;;;;;;;15.10;100.00;101048.75;10461694;28;20011;-67
2023/08/04 04:25:08;;;;;;;;;;;;;;;14.73;100.00;101056.69;10461289;28;19925;-67
2023/08/04 04:30:11;;;;;;;;;;;;;;;14.92;100.00;101055.38;10460917;28;19929;-67
2023/08/04 04:35:13;;;;;;;;;;;;;;;15.08;100.00;101053.31;10460906;28;20376;-67
2023/08/04 04:40:15;;;;;;;;;;;;;;;14.95;100.00;101073.59;10460589;28;20360;-67
2023/08/04 04:45:17;;;;;;;;;;;;;;;14.81;100.00;101077.19;10442954;28;19924;-67
2023/08/04 04:50:20;;;;;;;;;;;;;;;15.01;100.00;101079.28;10460348;28;19924;-67
2023/08/04 04:55:22;;;;;;;;;;;;;;;15.07;100.00;101078.00;10460260;28;19932;-67
2023/08/04 05:00:24;;;;;;;;;;;;;;;15.09;100.00;101083.16;10459777;28;20443;-66
2023/08/04 05:05:28;;;;;;;;;;;;;;;15.25;100.00;101091.66;10459851;28;20015;-66
2023/08/04 05:10:30;;;;;;;;;;;;;;;15.28;100.00;101083.53;10441718;28;20379;-66
2023/08/04 05:15:32;;;;;;;;;;;;;;;15.30;100.00;101093.94;10459271;28;19932;-67
2023/08/04 05:20:35;;;;;;;;;;;;;;;15.57;100.00;101091.09;10459008;28;19925;-66
2023/08/04 05:25:37;;;;;;;;;;;;;;;15.78;100.00;101097.47;10441118;28;19924;-67
2023/08/04 05:30:39;;;;;;;;;;;;;;;15.81;100.00;101093.72;10458500;28;19931;-67
2023/08/04 05:35:45;;;;;;;;;;;;;;;16.01;100.00;101113.34;10458415;28;19928;-67
2023/08/04 05:40:47;;;;;;;;;;;;;;;15.97;100.00;101117.19;10424273;28;20389;-67
2023/08/04 05:45:50;;;;;;;;;;;;;;;15.57;100.00;101125.41;10440707;28;19932;-67
2023/08/04 05:50:56;;;;;;;;;;;;;;;15.84;100.00;101135.75;10457896;28;20406;-67
2023/08/04 05:55:58;;;;;;;;;;;;;;;15.83;100.00;101144.63;10440198;28;20375;-67
2023/08/04 06:01:00;;;;;;;;;;;;;;;15.67;100.00;101144.88;10439851;28;19925;-67
2023/08/04 06:06:03;;;;;;;;;;;;;;;15.92;100.00;101149.22;10457401;28;20460;-67
2023/08/04 06:11:05;;;;;;;;;;;;;;;16.14;100.00;101164.31;10457317;28;20410;-65
2023/08/04 06:16:07;;;;;;;;;;;;;;;15.98;100.00;101159.31;10439465;28;19924;-67
2023/08/04 06:21:10;;;;;;;;;;;;;;;16.01;100.00;101166.19;10457133;28;20016;-67
2023/08/04 06:26:12;;;;;;;;;;;;;;;16.43;100.00;101173.63;10456699;28;20414;-67
2023/08/04 06:31:15;;;;;;;;;;;;;;;16.65;100.00;101168.38;10439054;28;19932;-67
2023/08/04 06:36:17;;;;;;;;;;;;;;;16.77;100.00;101171.88;10444594;28;19935;-67
2023/08/04 06:41:19;;;;;;;;;;;;;;;16.90;100.00;101164.69;10477955;22;20023;-66
2023/08/04 06:46:21;;;;;;;;;;;;;;;16.74;100.00;101169.44;10470251;28;19999;-66
2023/08/04 06:51:24;;;;;;;;;;;;;;;16.96;100.00;101170.47;10470270;28;19925;-65
2023/08/04 06:56:26;;;;;;;;;;;;;;;16.99;100.00;101172.88;10470083;28;20383;-66
2023/08/04 07:01:28;;;;;;;;;;;;;;;17.01;100.00;101166.50;10470008;28;19925;-66
2023/08/04 07:06:30;;;;;;;;;;;;;;;17.36;100.00;101167.31;10470206;28;19932;-66
2023/08/04 07:11:33;;;;;;;;;;;;;;;17.15;100.00;101173.34;10469961;28;19929;-65
2023/08/04 07:16:35;;;;;;;;;;;;;;;17.22;100.00;101192.22;10469854;28;19924;-65
2023/08/04 07:21:38;;;;;;;;;;;;;;;17.83;100.00;101183.78;10469642;28;20401;-66
2023/08/04 07:26:40;;;;;;;;;;;;;;;18.72;100.00;101183.47;10469659;28;20364;-66
2023/08/04 07:31:42;;;;;;;;;;;;;;;18.06;100.00;101186.38;10469744;28;19925;-67
2023/08/04 07:36:44;;;;;;;;;;;;;;;18.02;100.00;101188.41;10451706;28;20007;-67
2023/08/04 07:41:46;;;;;;;;;;;;;;;18.93;100.00;101186.13;10469271;28;19924;-66
2023/08/04 07:46:49;;;;;;;;;;;;;;;18.06;100.00;101199.63;10466515;28;20364;-66
2023/08/04 07:51:51;;;;;;;;;;;;;;;17.95;100.00;101203.16;10462832;28;19925;-66
2023/08/04 07:56:53;;;;;;;;;;;;;;;18.36;100.00;101202.38;10444886;28;19932;-66
2023/08/04 08:01:56;;;;;;;;;;;;;;;18.59;100.00;101209.34;10462158;28;19935;-66
2023/08/04 08:06:58;;;;;;;;;;;;;;;18.61;100.00;101205.59;10462229;28;19924;-67
2023/08/04 08:12:00;;;;;;;;;;;;;;;18.92;100.00;101203.81;10461848;28;20291;-66
2023/08/04 08:17:02;;;;;;;;;;;;;;;19.25;99.42;101204.53;10461901;28;19929;-66
2023/08/04 08:22:05;;;;;;;;;;;;;;;19.23;100.00;101213.59;10461480;28;20015;-66
2023/08/04 08:27:07;;;;;;;;;;;;;;;18.51;100.00;101216.16;10461178;28;19925;-67
2023/08/04 08:32:09;;;;;;;;;;;;;;;18.54;100.00;101221.19;10461219;28;19931;-66
2023/08/04 08:37:11;;;;;;;;;;;;;;;18.86;99.56;101219.44;10460955;28;19929;-66
2023/08/04 08:42:14;;;;;;;;;;;;;;;19.47;92.30;101208.78;10443052;28;19925;-67
2023/08/04 08:47:16;;;;;;;;;;;;;;;21.75;86.43;101216.03;10460473;28;19931;-66
2023/08/04 08:52:18;;;;;;;;;;;;;;;20.25;90.76;101218.66;10460254;28;20376;-67
2023/08/04 08:57:20;;;;;;;;;;;;;;;18.86;95.68;101230.91;10460128;28;19925;-67
2023/08/04 09:02:23;;;;;;;;;;;;;;;18.90;98.93;101240.28;10459617;28;19925;-67
2023/08/04 09:07:25;;;;;;;;;;;;;;;18.89;97.12;101254.50;10442017;28;20387;-67
2023/08/04 09:12:28;;;;;;;;;;;;;;;18.97;98.33;101248.53;10459467;28;19925;-67
2023/08/04 09:17:37;;;;;;;;;;;;;;;19.22;97.64;101247.25;10441571;28;19924;-67
2023/08/04 09:22:41;;;;;;;;;;;;;;;20.22;91.95;101242.88;10441611;28;19924;-68
2023/08/04 09:27:49;;;;;;;;;;;;;;;20.52;89.29;101241.84;10458881;28;19929;-67
2023/08/04 09:32:51;;;;;;;;;;;;;;;19.93;85.50;101246.34;10458808;28;19932;-67
2023/08/04 09:37:54;;;;;;;;;;;;;;;20.59;84.40;101240.34;10458500;28;20426;-67
2023/08/04 09:42:57;;;;;;;;;;;;;;;20.08;88.34;101241.47;10458084;28;19925;-67
2023/08/04 09:47:59;;;;;;;;;;;;;;;21.41;79.35;101234.47;10440370;28;19925;-67
2023/08/04 09:53:02;;;;;;;;;;;;;;;20.67;78.45;101244.13;10458141;28;19925;-67
2023/08/04 09:58:04;;;;;;;;;;;;;;;21.34;82.95;101245.69;10457835;28;19925;-67
2023/08/04 10:03:07;;;;;;;;;;;;;;;21.54;78.74;101253.63;10457564;28;19931;-64
2023/08/04 10:08:10;;;;;;;;;;;;;;;20.63;87.67;101256.88;10457190;28;19979;-67
2023/08/04 10:13:12;;;;;;;;;;;;;;;20.49;88.11;101251.94;10437897;28;20382;-67
2023/08/04 10:18:14;;;;;;;;;;;;;;;21.37;88.01;101259.69;10439629;28;19925;-68
2023/08/04 10:23:17;;;;;;;;;;;;;;;21.76;81.05;101265.69;10457037;28;19956;-68
2023/08/04 10:28:19;;;;;;;;;;;;;;;19.61;89.71;101279.25;10457292;28;19925;-69
2023/08/04 10:33:21;;;;;;;;;;;;;;;19.35;100.00;101270.06;10456774;28;20286;-68
2023/08/04 10:38:24;;;;;;;;;;;;;;;19.69;100.00;101281.25;10456645;28;19967;-68
2023/08/04 10:43:26;;;;;;;;;;;;;;;20.16;100.00;101280.66;10456650;28;19931;-68
2023/08/04 10:48:28;;;;;;;;;;;;;;;21.87;100.00;101284.16;10456755;28;19968;-69
2023/08/04 10:53:31;;;;;;;;;;;;;;;23.34;83.88;101269.47;10456526;28;19924;-69
2023/08/04 10:58:34;;;;;;;;;;;;;;;24.24;78.51;101267.03;10456436;28;19929;-69
2023/08/04 11:03:36;;;;;;;;;;;;;;;21.20;83.57;101270.16;10456196;28;19925;-69
2023/08/04 11:08:39;;;;;;;;;;;;;;;23.84;78.05;101257.09;10456174;28;20020;-69
2023/08/04 11:13:41;;;;;;;;;;;;;;;24.22;75.22;101262.84;10438478;28;19925;-69
2023/08/04 11:18:43;;;;;;;;;;;;;;;24.01;69.78;101266.03;10455836;28;19929;-69
2023/08/04 11:23:45;;;;;;;;;;;;;;;22.79;71.97;101260.78;10460982;28;20020;-69
2023/08/04 11:28:48;;;;;;;;;;;;;;;24.59;68.02;101261.53;10446175;28;20012;-69
2023/08/04 11:33:50;;;;;;;;;;;;;;;23.76;66.42;101273.94;10464039;28;19925;-69
2023/08/04 11:38:53;;;;;;;;;;;;;;;23.45;69.23;101284.34;10463104;28;19931;-69
2023/08/04 11:43:55;;;;;;;;;;;;;;;23.68;73.37;101284.63;10462670;28;19929;-69
2023/08/04 11:48:58;;;;;;;;;;;;;;;22.79;70.89;101281.31;10445157;28;20382;-69
2023/08/04 11:54:00;;;;;;;;;;;;;;;23.12;71.38;101294.91;10462880;28;19933;-69
2023/08/04 11:59:09;;;;;;;;;;;;;;;22.19;69.60;101289.94;10462311;28;19924;-69
2023/08/04 12:04:18;;;;;;;;;;;;;;;21.55;72.33;101300.59;10444673;28;20307;-69
2023/08/04 12:09:21;;;;;;;;;;;;;;;23.42;68.69;101303.38;10462091;28;20019;-69
2023/08/04 12:14:23;;;;;;;;;;;;;;;23.13;68.47;101297.41;10461804;28;20352;-69
2023/08/04 12:19:26;;;;;;;;;;;;;;;22.12;71.99;101318.22;10461800;28;19925;-68
2023/08/04 12:24:28;;;;;;;;;;;;;;;21.63;75.22;101315.84;10461488;28;19929;-68
2023/08/04 12:29:30;;;;;;;;;;;;;;;22.31;75.95;101323.44;10443623;28;20383;-68
2023/08/04 12:34:33;;;;;;;;;;;;;;;24.03;68.01;101326.34;10460290;28;20439;-68
2023/08/04 12:39:35;;;;;;;;;;;;;;;23.97;67.81;101347.56;10460851;28;19925;-69
2023/08/04 12:44:37;;;;;;;;;;;;;;;24.73;68.65;101340.31;10460495;28;19931;-69
2023/08/04 12:49:40;;;;;;;;;;;;;;;24.98;64.64;101335.78;10460396;28;20276;-69
2023/08/04 12:54:42;;;;;;;;;;;;;;;23.93;63.55;101347.06;10442779;28;19932;-68
2023/08/04 12:59:44;;;;;;;;;;;;;;;24.93;63.90;101335.44;10460110;28;19935;-69
2023/08/04 13:04:47;;;;;;;;;;;;;;;24.38;60.70;101328.94;10442453;28;19924;-68
2023/08/04 13:09:49;;;;;;;;;;;;;;;24.39;63.21;101327.91;10459701;28;19955;-68
2023/08/04 13:14:51;;;;;;;;;;;;;;;25.30;61.99;101326.03;10459357;28;19947;-69
2023/08/04 13:19:53;;;;;;;;;;;;;;;25.02;62.32;101326.41;10441755;28;19932;-68
2023/08/04 13:24:56;;;;;;;;;;;;;;;23.40;65.66;101332.09;10459100;28;19935;-68
2023/08/04 13:29:58;;;;;;;;;;;;;;;23.46;65.86;101353.69;10441382;28;20015;-68
2023/08/04 13:35:00;;;;;;;;;;;;;;;22.75;64.48;101368.88;10440977;28;20406;-67
2023/08/04 13:40:03;;;;;;;;;;;;;;;24.74;64.72;101366.09;10440763;28;19931;-68
2023/08/04 13:45:05;;;;;;;;;;;;;;;23.86;65.25;101368.25;10457380;28;19924;-68
2023/08/04 13:50:08;;;;;;;;;;;;;;;23.70;65.72;101366.34;10457994;28;19928;-68
2023/08/04 13:55:10;;;;;;;;;;;;;;;23.60;65.42;101360.25;10440256;28;20034;-68
2023/08/04 14:00:12;;;;;;;;;;;;;;;24.42;64.16;101367.72;10457682;28;19924;-68
2023/08/04 14:05:15;;;;;;;;;;;;;;;23.35;65.85;101362.81;10457856;28;20023;-68
2023/08/04 14:10:17;;;;;;;;;;;;;;;23.83;66.52;101370.41;10457562;28;19924;-68
2023/08/04 14:15:21;;;;;;;;;;;;;;;23.05;66.55;101363.22;10457213;28;20017;-68
2023/08/04 14:20:23;;;;;;;;;;;;;;;22.65;70.98;101373.44;10457100;28;19925;-68
2023/08/04 14:25:25;;;;;;;;;;;;;;;21.91;74.67;101377.97;10456946;28;19933;-68
2023/08/04 14:30:28;;;;;;;;;;;;;;;20.84;76.86;101387.06;10439463;28;19925;-68
2023/08/04 14:35:30;;;;;;;;;;;;;;;20.62;79.10;101382.84;10456790;28;20368;-68
2023/08/04 14:40:32;;;;;;;;;;;;;;;20.50;84.47;101408.72;10422422;28;20011;-68
2023/08/04 14:45:35;;;;;;;;;;;;;;;20.93;87.42;101398.69;10438797;28;19936;-68
2023/08/04 14:50:40;;;;;;;;;;;;;;;21.44;82.31;101386.81;10456333;28;19928;-68
2023/08/04 14:55:42;;;;;;;;;;;;;;;21.46;83.44;101386.69;10456575;28;20376;-68
2023/08/04 15:00:45;;;;;;;;;;;;;;;21.80;81.04;101389.66;10464527;28;20334;-67
2023/08/04 15:05:48;;;;;;;;;;;;;;;21.20;84.66;101395.31;10464412;28;20327;-67
2023/08/04 15:10:50;;;;;;;;;;;;;;;20.98;86.31;101388.47;10464228;28;19931;-67
2023/08/04 15:15:53;;;;;;;;;;;;;;;22.17;73.78;101374.59;10464092;28;19979;-67
2023/08/04 15:20:55;;;;;;;;;;;;;;;23.50;69.87;101380.91;10463923;28;19928;-67
2023/08/04 15:25:58;;;;;;;;;;;;;;;24.62;66.15;101378.97;10445852;28;20391;-67
2023/08/04 15:31:04;;;;;;;;;;;;;;;24.38;63.45;101372.56;10463595;28;19928;-67
2023/08/04 15:36:07;;;;;;;;;;;;;;;23.80;62.93;101374.19;10445662;28;19972;-66
2023/08/04 15:41:09;;;;;;;;;;;;;;;23.23;65.70;101376.59;10462783;28;19947;-67
2023/08/04 15:46:11;;;;;;;;;;;;;;;22.05;65.77;101381.97;10462862;28;19924;-67
2023/08/04 15:51:14;;;;;;;;;;;;;;;21.73;70.57;101391.25;10463203;28;20379;-67
2023/08/04 15:56:16;;;;;;;;;;;;;;;21.38;70.44;101398.06;10462533;28;20023;-67
2023/08/04 16:01:18;;;;;;;;;;;;;;;21.50;70.64;101394.28;10462245;28;19947;-66
2023/08/04 16:06:21;;;;;;;;;;;;;;;21.33;69.62;101400.31;10462370;28;19956;-67
2023/08/04 16:11:23;;;;;;;;;;;;;;;21.89;70.89;101403.97;10460821;28;20363;-67
2023/08/04 16:16:25;;;;;;;;;;;;;;;22.42;66.47;101413.06;10461731;28;19928;-67
2023/08/04 16:21:27;;;;;;;;;;;;;;;21.20;71.68;101415.75;10444035;28;19925;-67
2023/08/04 16:26:31;;;;;;;;;;;;;;;21.88;69.19;101402.25;10461271;28;19925;-67
2023/08/04 16:31:33;;;;;;;;;;;;;;;21.68;72.19;101413.00;10461377;28;20371;-67
2023/08/04 16:36:36;;;;;;;;;;;;;;;22.04;70.78;101421.13;10443233;28;19952;-67
2023/08/04 16:41:39;;;;;;;;;;;;;;;22.29;70.07;101418.75;10442873;28;20372;-67
2023/08/04 16:46:41;;;;;;;;;;;;;;;22.81;67.78;101420.78;10460720;28;19931;-67
2023/08/04 16:51:43;;;;;;;;;;;;;;;22.86;68.86;101431.00;10459119;28;19924;-68
2023/08/04 16:56:47;;;;;;;;;;;;;;;22.69;68.01;101433.53;10459920;28;20570;-67
2023/08/04 17:01:50;;;;;;;;;;;;;;;22.01;68.79;101433.94;10442250;28;19925;-67
2023/08/04 17:06:52;;;;;;;;;;;;;;;21.78;67.65;101420.97;10460019;28;19928;-67
2023/08/04 17:11:54;;;;;;;;;;;;;;;21.39;67.20;101414.91;10459494;28;20430;-67
2023/08/04 17:16:56;;;;;;;;;;;;;;;21.14;69.29;101427.81;10459239;28;20364;-67
2023/08/04 17:21:59;;;;;;;;;;;;;;;20.67;69.01;101430.34;10458784;28;20383;-67
2023/08/04 17:27:01;;;;;;;;;;;;;;;20.69;70.07;101436.38;10458846;28;19928;-67
2023/08/04 17:32:03;;;;;;;;;;;;;;;20.87;71.69;101450.66;10458949;28;19924;-67
2023/08/04 17:37:06;;;;;;;;;;;;;;;20.59;73.50;101447.81;10458551;28;20281;-67
2023/08/04 17:42:08;;;;;;;;;;;;;;;19.86;75.64;101463.94;10458374;28;19932;-67
2023/08/04 17:47:11;;;;;;;;;;;;;;;20.27;77.62;101457.81;10458188;28;19928;-67
2023/08/04 17:52:14;;;;;;;;;;;;;;;19.80;77.77;101463.63;10458000;28;20298;-67
2023/08/04 17:57:16;;;;;;;;;;;;;;;19.74;78.69;101472.13;10458063;28;19936;-67
2023/08/04 18:02:18;;;;;;;;;;;;;;;19.93;78.97;101469.56;10457677;28;20012;-67
2023/08/04 18:07:21;;;;;;;;;;;;;;;19.96;81.47;101464.00;10457784;28;19925;-67
2023/08/04 18:12:23;;;;;;;;;;;;;;;19.89;81.39;101478.78;10457483;28;19925;-67
2023/08/04 18:17:25;;;;;;;;;;;;;;;19.84;82.83;101491.63;10457241;28;20362;-67
2023/08/04 18:22:27;;;;;;;;;;;;;;;19.71;82.63;101497.13;10457028;28;20368;-67
2023/08/04 18:27:30;;;;;;;;;;;;;;;19.07;82.14;101506.00;10456901;28;19925;-67
2023/08/04 18:32:32;;;;;;;;;;;;;;;18.86;83.46;101514.75;10456183;28;19924;-67
2023/08/04 18:37:34;;;;;;;;;;;;;;;18.74;85.89;101513.91;10456566;28;19924;-67
2023/08/04 18:42:38;;;;;;;;;;;;;;;18.94;85.61;101519.44;10456388;28;19929;-67
2023/08/04 18:47:41;;;;;;;;;;;;;;;18.82;86.60;101525.72;10439240;28;19928;-67
2023/08/04 18:52:43;;;;;;;;;;;;;;;18.75;87.92;101534.16;10438723;28;19925;-67
2023/08/04 18:57:45;;;;;;;;;;;;;;;18.71;91.31;101545.13;10478792;22;19925;-67
2023/08/04 19:02:48;;;;;;;;;;;;;;;18.56;91.98;101540.09;10496488;28;19929;-67
2023/08/04 19:07:50;;;;;;;;;;;;;;;18.52;93.90;101543.94;10497779;28;19931;-67
2023/08/04 19:12:52;;;;;;;;;;;;;;;18.21;98.38;101548.19;10497582;28;19931;-67
2023/08/04 19:17:54;;;;;;;;;;;;;;;18.27;97.61;101547.69;10497657;28;19931;-67
2023/08/04 19:22:57;;;;;;;;;;;;;;;18.02;100.00;101556.69;10497517;28;19935;-67
2023/08/04 19:27:59;;;;;;;;;;;;;;;17.89;100.00;101558.63;10497315;28;19924;-67
2023/08/04 19:33:01;;;;;;;;;;;;;;;17.64;100.00;101563.09;10497232;28;19925;-67
2023/08/04 19:38:03;;;;;;;;;;;;;;;17.45;100.00;101574.22;10496922;28;19975;-67
2023/08/04 19:43:07;;;;;;;;;;;;;;;17.35;100.00;101582.00;10499205;28;19924;-67
2023/08/04 19:48:10;;;;;;;;;;;;;;;17.20;100.00;101585.75;10504367;28;19932;-67
2023/08/04 19:53:12;;;;;;;;;;;;;;;17.04;100.00;101597.44;10504309;28;20000;-67
2023/08/04 19:58:15;;;;;;;;;;;;;;;16.92;100.00;101597.50;10502872;28;19978;-67
2023/08/04 20:03:17;;;;;;;;;;;;;;;16.79;100.00;101594.84;10503651;28;20318;-67
2023/08/04 20:08:19;;;;;;;;;;;;;;;16.62;100.00;101602.16;10503586;28;20367;-67
2023/08/04 20:13:21;;;;;;;;;;;;;;;16.58;100.00;101611.25;10503452;28;19924;-67
2023/08/04 20:18:24;;;;;;;;;;;;;;;16.58;100.00;101605.13;10503232;28;20376;-67
2023/08/04 20:23:26;;;;;;;;;;;;;;;16.42;100.00;101605.34;10503185;28;19931;-67
2023/08/04 20:28:28;;;;;;;;;;;;;;;16.27;100.00;101612.53;10502879;28;19924;-67
2023/08/04 20:33:31;;;;;;;;;;;;;;;16.35;100.00;101613.69;10502867;28;19931;-67
2023/08/04 20:38:33;;;;;;;;;;;;;;;16.25;100.00;101611.78;10501164;28;19964;-67
2023/08/04 20:43:38;;;;;;;;;;;;;;;16.35;100.00;101608.41;10484601;28;19928;-67
2023/08/04 20:48:40;;;;;;;;;;;;;;;16.36;100.00;101609.28;10502006;28;20338;-67
2023/08/04 20:53:43;;;;;;;;;;;;;;;16.23;100.00;101619.81;10501272;28;20361;-67
2023/08/04 20:58:45;;;;;;;;;;;;;;;16.30;100.00;101617.59;10501643;28;20007;-67
2023/08/04 21:03:47;;;;;;;;;;;;;;;16.26;100.00;101624.06;10516978;28;19928;-67
2023/08/04 21:08:49;;;;;;;;;;;;;;;16.21;100.00;101624.38;10501330;28;19924;-67
2023/08/04 21:13:52;;;;;;;;;;;;;;;16.11;100.00;101634.72;10500827;28;19931;-67
2023/08/04 21:18:54;;;;;;;;;;;;;;;15.98;100.00;101620.63;10500691;28;19931;-67
2023/08/04 21:23:56;;;;;;;;;;;;;;;15.90;100.00;101629.09;10500569;28;19925;-67
2023/08/04 21:28:58;;;;;;;;;;;;;;;15.76;100.00;101629.97;10499101;28;19924;-67
2023/08/04 21:34:01;;;;;;;;;;;;;;;15.85;100.00;101635.59;10499297;28;20011;-67
2023/08/04 21:39:03;;;;;;;;;;;;;;;15.81;100.00;101631.50;10499971;28;19924;-67
2023/08/04 21:44:05;;;;;;;;;;;;;;;15.70;100.00;101635.66;10499689;28;20343;-67
2023/08/04 21:49:07;;;;;;;;;;;;;;;15.74;100.00;101636.28;10499640;28;19928;-67
2023/08/04 21:54:10;;;;;;;;;;;;;;;15.63;100.00;101642.25;10498212;28;20297;-67
2023/08/04 21:59:13;;;;;;;;;;;;;;;15.54;100.00;101646.34;10499243;28;20007;-67
2023/08/04 22:04:15;;;;;;;;;;;;;;;15.34;100.00;101646.81;10499103;28;19924;-67
2023/08/04 22:09:17;;;;;;;;;;;;;;;15.57;100.00;101637.41;10498158;28;20389;-67
2023/08/04 22:14:19;;;;;;;;;;;;;;;15.69;100.00;101649.78;10498887;28;19925;-67
2023/08/04 22:19:22;;;;;;;;;;;;;;;15.56;100.00;101633.91;10498550;28;20379;-67
2023/08/04 22:24:24;;;;;;;;;;;;;;;15.62;100.00;101653.78;10497580;28;19970;-67
2023/08/04 22:29:26;;;;;;;;;;;;;;;15.51;100.00;101648.34;10498435;28;19972;-67
2023/08/04 22:34:28;;;;;;;;;;;;;;;15.47;100.00;101660.06;10498309;28;20463;-67
2023/08/04 22:39:31;;;;;;;;;;;;;;;15.50;100.00;101663.34;10480362;28;19950;-67
2023/08/04 22:44:33;;;;;;;;;;;;;;;15.54;100.00;101658.72;10498182;28;20294;-67
2023/08/04 22:49:36;;;;;;;;;;;;;;;15.58;100.00;101654.91;10498265;28;19932;-67
2023/08/04 22:54:38;;;;;;;;;;;;;;;15.63;100.00;101644.06;10496779;28;20493;-67
2023/08/04 22:59:40;;;;;;;;;;;;;;;15.73;100.00;101650.44;10497615;28;19931;-67
2023/08/04 23:04:42;;;;;;;;;;;;;;;15.68;100.00;101649.88;10497902;28;19925;-67
2023/08/04 23:09:45;;;;;;;;;;;;;;;15.78;100.00;101649.25;10497880;28;19924;-67
2023/08/04 23:14:50;;;;;;;;;;;;;;;15.83;100.00;101648.91;10497643;28;20015;-67
2023/08/04 23:19:52;;;;;;;;;;;;;;;15.84;100.00;101652.41;10502780;28;20275;-67
2023/08/04 23:24:54;;;;;;;;;;;;;;;15.95;100.00;101639.31;10505423;28;19931;-67
2023/08/04 23:29:58;;;;;;;;;;;;;;;15.97;100.00;101648.00;10503828;28;19930;-67
2023/08/04 23:35:00;;;;;;;;;;;;;;;16.05;100.00;101642.19;10505166;28;19925;-67
2023/08/04 23:40:04;;;;;;;;;;;;;;;16.00;100.00;101641.66;10503498;28;19925;-67
2023/08/04 23:45:07;;;;;;;;;;;;;;;16.01;100.00;101644.22;10504537;28;20015;-68
2023/08/04 23:50:09;;;;;;;;;;;;;;;16.10;100.00;101635.66;10503338;28;19924;-67
2023/08/04 23:55:11;;;;;;;;;;;;;;;16.15;100.00;101630.94;10504183;28;19924;-67
